sensor_id;sensor_type;location;lat;lon;timestamp;P1;durP1;ratioP1;P2;durP2;ratioP2
5682;SDS011;2864;49.220;8.654;2023-01-31T00:01:23;15.27;;;9.73;;
5682;SDS011;2864;49.220;8.654;2023-01-31T00:03:52;17.77;;;10.33;;
5682;SDS011;2864;49.220;8.654;2023-01-31T00:06:19;16.60;;;9.77;;
5682;SDS011;2864;49.220;8.654;2023-01-31T00:08:47;15.53;;;9.77;;
5682;SDS011;2864;49.220;8.654;2023-01-31T00:11:14;18.67;;;10.43;;
5682;SDS011;2864;49.220;8.654;2023-01-31T00:13:40;17.27;;;10.20;;
5682;SDS011;2864;49.220;8.654;2023-01-31T00:16:07;15.63;;;10.13;;
5682;SDS011;2864;49.220;8.654;2023-01-31T00:18:33;16.10;;;10.17;;
5682;SDS011;2864;49.220;8.654;2023-01-31T00:21:07;13.63;;;9.40;;
5682;SDS011;2864;49.220;8.654;2023-01-31T00:23:33;19.57;;;10.73;;
5682;SDS011;2864;49.220;8.654;2023-01-31T00:26:33;17.00;;;10.53;;
5682;SDS011;2864;49.220;8.654;2023-01-31T00:28:53;18.40;;;9.17;;
5682;SDS011;2864;49.220;8.654;2023-01-31T00:31:20;17.40;;;10.20;;
5682;SDS011;2864;49.220;8.654;2023-01-31T00:33:47;21.07;;;10.57;;
5682;SDS011;2864;49.220;8.654;2023-01-31T00:36:14;14.73;;;9.57;;
5682;SDS011;2864;49.220;8.654;2023-01-31T00:38:41;16.10;;;9.83;;
5682;SDS011;2864;49.220;8.654;2023-01-31T00:41:08;19.50;;;10.77;;
5682;SDS011;2864;49.220;8.654;2023-01-31T00:43:34;19.73;;;10.00;;
5682;SDS011;2864;49.220;8.654;2023-01-31T00:46:00;19.70;;;9.83;;
5682;SDS011;2864;49.220;8.654;2023-01-31T00:48:26;20.53;;;11.57;;
5682;SDS011;2864;49.220;8.654;2023-01-31T00:50:52;17.97;;;9.80;;
5682;SDS011;2864;49.220;8.654;2023-01-31T00:53:19;20.63;;;10.60;;
5682;SDS011;2864;49.220;8.654;2023-01-31T00:55:51;17.27;;;10.93;;
5682;SDS011;2864;49.220;8.654;2023-01-31T00:58:18;17.63;;;10.30;;
5682;SDS011;2864;49.220;8.654;2023-01-31T01:00:44;20.67;;;10.57;;
5682;SDS011;2864;49.220;8.654;2023-01-31T01:03:10;18.57;;;10.80;;
5682;SDS011;2864;49.220;8.654;2023-01-31T01:05:36;18.37;;;10.50;;
5682;SDS011;2864;49.220;8.654;2023-01-31T01:08:02;20.20;;;10.10;;
5682;SDS011;2864;49.220;8.654;2023-01-31T01:10:28;18.20;;;10.23;;
5682;SDS011;2864;49.220;8.654;2023-01-31T01:12:54;19.20;;;10.37;;
5682;SDS011;2864;49.220;8.654;2023-01-31T01:15:20;19.23;;;11.27;;
5682;SDS011;2864;49.220;8.654;2023-01-31T01:17:46;18.67;;;10.37;;
5682;SDS011;2864;49.220;8.654;2023-01-31T01:20:12;17.27;;;10.67;;
5682;SDS011;2864;49.220;8.654;2023-01-31T01:22:38;17.03;;;11.47;;
5682;SDS011;2864;49.220;8.654;2023-01-31T01:25:06;20.33;;;11.03;;
5682;SDS011;2864;49.220;8.654;2023-01-31T01:27:33;22.40;;;11.20;;
5682;SDS011;2864;49.220;8.654;2023-01-31T01:29:58;17.70;;;10.47;;
5682;SDS011;2864;49.220;8.654;2023-01-31T01:32:26;19.67;;;11.33;;
5682;SDS011;2864;49.220;8.654;2023-01-31T01:34:52;18.20;;;11.50;;
5682;SDS011;2864;49.220;8.654;2023-01-31T01:37:17;24.90;;;11.37;;
5682;SDS011;2864;49.220;8.654;2023-01-31T01:39:49;17.77;;;10.63;;
5682;SDS011;2864;49.220;8.654;2023-01-31T01:42:16;16.87;;;9.40;;
5682;SDS011;2864;49.220;8.654;2023-01-31T01:44:56;16.37;;;10.33;;
5682;SDS011;2864;49.220;8.654;2023-01-31T01:50:10;19.10;;;10.73;;
5682;SDS011;2864;49.220;8.654;2023-01-31T01:52:39;17.57;;;10.87;;
5682;SDS011;2864;49.220;8.654;2023-01-31T01:55:08;22.27;;;11.80;;
5682;SDS011;2864;49.220;8.654;2023-01-31T01:57:36;18.53;;;11.30;;
5682;SDS011;2864;49.220;8.654;2023-01-31T02:02:30;21.33;;;11.83;;
5682;SDS011;2864;49.220;8.654;2023-01-31T02:04:56;21.33;;;11.67;;
5682;SDS011;2864;49.220;8.654;2023-01-31T02:07:22;20.63;;;12.27;;
5682;SDS011;2864;49.220;8.654;2023-01-31T02:09:58;18.50;;;11.00;;
5682;SDS011;2864;49.220;8.654;2023-01-31T02:12:45;20.70;;;12.20;;
5682;SDS011;2864;49.220;8.654;2023-01-31T02:15:11;21.07;;;11.67;;
5682;SDS011;2864;49.220;8.654;2023-01-31T02:17:37;17.67;;;10.57;;
5682;SDS011;2864;49.220;8.654;2023-01-31T02:23:42;19.03;;;11.87;;
5682;SDS011;2864;49.220;8.654;2023-01-31T02:35:54;21.20;;;11.77;;
5682;SDS011;2864;49.220;8.654;2023-01-31T02:43:53;22.40;;;11.80;;
5682;SDS011;2864;49.220;8.654;2023-01-31T02:49:34;21.07;;;11.20;;
5682;SDS011;2864;49.220;8.654;2023-01-31T02:54:55;22.13;;;11.77;;
5682;SDS011;2864;49.220;8.654;2023-01-31T02:57:42;21.37;;;10.83;;
5682;SDS011;2864;49.220;8.654;2023-01-31T03:00:09;23.30;;;12.80;;
5682;SDS011;2864;49.220;8.654;2023-01-31T03:02:35;19.63;;;10.57;;
5682;SDS011;2864;49.220;8.654;2023-01-31T03:05:01;24.33;;;12.63;;
5682;SDS011;2864;49.220;8.654;2023-01-31T03:07:28;22.57;;;12.47;;
5682;SDS011;2864;49.220;8.654;2023-01-31T03:18:22;20.57;;;11.43;;
5682;SDS011;2864;49.220;8.654;2023-01-31T03:20:58;20.10;;;11.43;;
5682;SDS011;2864;49.220;8.654;2023-01-31T03:23:26;24.17;;;12.40;;
5682;SDS011;2864;49.220;8.654;2023-01-31T03:25:58;19.60;;;11.87;;
5682;SDS011;2864;49.220;8.654;2023-01-31T03:28:26;27.17;;;12.40;;
5682;SDS011;2864;49.220;8.654;2023-01-31T03:31:00;24.03;;;11.70;;
5682;SDS011;2864;49.220;8.654;2023-01-31T03:33:34;27.03;;;13.13;;
5682;SDS011;2864;49.220;8.654;2023-01-31T03:38:34;27.20;;;12.47;;
5682;SDS011;2864;49.220;8.654;2023-01-31T03:46:33;27.97;;;14.07;;
5682;SDS011;2864;49.220;8.654;2023-01-31T03:52:04;25.13;;;13.40;;
5682;SDS011;2864;49.220;8.654;2023-01-31T03:54:33;22.37;;;12.37;;
5682;SDS011;2864;49.220;8.654;2023-01-31T03:57:05;23.83;;;12.80;;
5682;SDS011;2864;49.220;8.654;2023-01-31T03:59:37;22.80;;;11.90;;
5682;SDS011;2864;49.220;8.654;2023-01-31T04:02:04;22.57;;;13.37;;
5682;SDS011;2864;49.220;8.654;2023-01-31T04:06:58;25.97;;;12.93;;
5682;SDS011;2864;49.220;8.654;2023-01-31T04:09:25;30.97;;;13.40;;
5682;SDS011;2864;49.220;8.654;2023-01-31T04:11:51;23.63;;;13.80;;
5682;SDS011;2864;49.220;8.654;2023-01-31T04:14:17;24.53;;;13.67;;
5682;SDS011;2864;49.220;8.654;2023-01-31T04:16:43;27.80;;;12.93;;
5682;SDS011;2864;49.220;8.654;2023-01-31T04:19:09;22.97;;;13.07;;
5682;SDS011;2864;49.220;8.654;2023-01-31T04:21:35;24.70;;;12.70;;
5682;SDS011;2864;49.220;8.654;2023-01-31T04:24:01;29.53;;;14.00;;
5682;SDS011;2864;49.220;8.654;2023-01-31T04:26:27;29.13;;;14.00;;
5682;SDS011;2864;49.220;8.654;2023-01-31T04:28:53;25.87;;;13.93;;
5682;SDS011;2864;49.220;8.654;2023-01-31T04:31:19;26.93;;;13.33;;
5682;SDS011;2864;49.220;8.654;2023-01-31T04:33:45;22.03;;;13.67;;
5682;SDS011;2864;49.220;8.654;2023-01-31T04:36:11;23.73;;;12.90;;
5682;SDS011;2864;49.220;8.654;2023-01-31T04:38:37;22.57;;;12.23;;
5682;SDS011;2864;49.220;8.654;2023-01-31T04:41:03;26.00;;;14.50;;
5682;SDS011;2864;49.220;8.654;2023-01-31T04:43:29;27.40;;;15.07;;
5682;SDS011;2864;49.220;8.654;2023-01-31T04:45:55;31.23;;;14.63;;
5682;SDS011;2864;49.220;8.654;2023-01-31T04:48:21;29.37;;;15.07;;
5682;SDS011;2864;49.220;8.654;2023-01-31T04:50:47;22.23;;;11.97;;
5682;SDS011;2864;49.220;8.654;2023-01-31T04:53:13;28.20;;;14.80;;
5682;SDS011;2864;49.220;8.654;2023-01-31T04:55:40;26.83;;;14.83;;
5682;SDS011;2864;49.220;8.654;2023-01-31T04:58:06;22.60;;;14.73;;
5682;SDS011;2864;49.220;8.654;2023-01-31T05:00:32;26.80;;;14.63;;
5682;SDS011;2864;49.220;8.654;2023-01-31T05:02:58;27.53;;;15.50;;
5682;SDS011;2864;49.220;8.654;2023-01-31T05:05:27;27.27;;;15.23;;
5682;SDS011;2864;49.220;8.654;2023-01-31T05:07:53;30.20;;;15.40;;
5682;SDS011;2864;49.220;8.654;2023-01-31T05:10:18;33.60;;;15.80;;
5682;SDS011;2864;49.220;8.654;2023-01-31T05:12:45;26.57;;;14.73;;
5682;SDS011;2864;49.220;8.654;2023-01-31T05:15:11;28.40;;;13.77;;
5682;SDS011;2864;49.220;8.654;2023-01-31T05:17:37;30.53;;;15.50;;
5682;SDS011;2864;49.220;8.654;2023-01-31T05:20:03;26.60;;;15.37;;
5682;SDS011;2864;49.220;8.654;2023-01-31T05:22:29;31.77;;;15.53;;
5682;SDS011;2864;49.220;8.654;2023-01-31T05:24:55;33.27;;;15.33;;
5682;SDS011;2864;49.220;8.654;2023-01-31T05:27:21;28.20;;;14.37;;
5682;SDS011;2864;49.220;8.654;2023-01-31T05:29:47;33.13;;;15.97;;
5682;SDS011;2864;49.220;8.654;2023-01-31T05:32:13;33.30;;;16.07;;
5682;SDS011;2864;49.220;8.654;2023-01-31T05:34:40;27.40;;;15.57;;
5682;SDS011;2864;49.220;8.654;2023-01-31T05:37:06;31.33;;;16.30;;
5682;SDS011;2864;49.220;8.654;2023-01-31T05:39:32;35.03;;;16.60;;
5682;SDS011;2864;49.220;8.654;2023-01-31T05:41:58;35.73;;;16.73;;
5682;SDS011;2864;49.220;8.654;2023-01-31T05:44:24;32.53;;;15.73;;
5682;SDS011;2864;49.220;8.654;2023-01-31T05:46:50;37.10;;;17.57;;
5682;SDS011;2864;49.220;8.654;2023-01-31T05:49:16;39.90;;;17.47;;
5682;SDS011;2864;49.220;8.654;2023-01-31T05:51:42;29.67;;;16.00;;
5682;SDS011;2864;49.220;8.654;2023-01-31T05:54:09;33.97;;;16.83;;
5682;SDS011;2864;49.220;8.654;2023-01-31T05:56:35;28.83;;;14.27;;
5682;SDS011;2864;49.220;8.654;2023-01-31T05:59:03;28.97;;;16.07;;
5682;SDS011;2864;49.220;8.654;2023-01-31T06:01:29;25.87;;;13.13;;
5682;SDS011;2864;49.220;8.654;2023-01-31T06:03:55;32.13;;;16.97;;
5682;SDS011;2864;49.220;8.654;2023-01-31T06:06:21;31.23;;;15.70;;
5682;SDS011;2864;49.220;8.654;2023-01-31T06:08:47;26.57;;;12.47;;
5682;SDS011;2864;49.220;8.654;2023-01-31T06:11:13;33.07;;;16.73;;
5682;SDS011;2864;49.220;8.654;2023-01-31T06:13:40;30.37;;;16.00;;
5682;SDS011;2864;49.220;8.654;2023-01-31T06:16:07;32.33;;;14.70;;
5682;SDS011;2864;49.220;8.654;2023-01-31T06:18:34;29.70;;;15.07;;
5682;SDS011;2864;49.220;8.654;2023-01-31T06:21:00;26.73;;;14.97;;
5682;SDS011;2864;49.220;8.654;2023-01-31T06:23:26;31.77;;;17.00;;
5682;SDS011;2864;49.220;8.654;2023-01-31T06:25:52;37.07;;;17.57;;
5682;SDS011;2864;49.220;8.654;2023-01-31T06:28:19;33.10;;;16.63;;
5682;SDS011;2864;49.220;8.654;2023-01-31T06:30:45;32.83;;;15.30;;
5682;SDS011;2864;49.220;8.654;2023-01-31T06:33:11;34.03;;;14.50;;
5682;SDS011;2864;49.220;8.654;2023-01-31T06:35:38;33.87;;;17.47;;
5682;SDS011;2864;49.220;8.654;2023-01-31T06:38:05;30.07;;;14.27;;
5682;SDS011;2864;49.220;8.654;2023-01-31T06:40:31;32.20;;;17.20;;
5682;SDS011;2864;49.220;8.654;2023-01-31T06:42:57;26.27;;;13.60;;
5682;SDS011;2864;49.220;8.654;2023-01-31T06:45:23;37.83;;;18.27;;
5682;SDS011;2864;49.220;8.654;2023-01-31T06:47:50;31.10;;;15.40;;
5682;SDS011;2864;49.220;8.654;2023-01-31T06:50:16;33.90;;;17.17;;
5682;SDS011;2864;49.220;8.654;2023-01-31T06:52:42;37.83;;;18.67;;
5682;SDS011;2864;49.220;8.654;2023-01-31T06:55:08;27.57;;;15.00;;
5682;SDS011;2864;49.220;8.654;2023-01-31T06:57:35;40.73;;;19.30;;
5682;SDS011;2864;49.220;8.654;2023-01-31T07:00:02;38.90;;;19.10;;
5682;SDS011;2864;49.220;8.654;2023-01-31T07:02:28;31.40;;;16.87;;
5682;SDS011;2864;49.220;8.654;2023-01-31T07:04:54;44.07;;;20.00;;
5682;SDS011;2864;49.220;8.654;2023-01-31T07:07:20;40.33;;;19.80;;
5682;SDS011;2864;49.220;8.654;2023-01-31T07:09:46;36.57;;;17.97;;
5682;SDS011;2864;49.220;8.654;2023-01-31T07:12:12;44.53;;;17.80;;
5682;SDS011;2864;49.220;8.654;2023-01-31T07:14:38;29.53;;;14.47;;
5682;SDS011;2864;49.220;8.654;2023-01-31T07:17:04;43.13;;;18.83;;
5682;SDS011;2864;49.220;8.654;2023-01-31T07:19:30;42.70;;;17.90;;
5682;SDS011;2864;49.220;8.654;2023-01-31T07:21:56;37.80;;;17.93;;
5682;SDS011;2864;49.220;8.654;2023-01-31T07:24:22;43.53;;;18.27;;
5682;SDS011;2864;49.220;8.654;2023-01-31T07:26:50;37.20;;;17.77;;
5682;SDS011;2864;49.220;8.654;2023-01-31T07:29:17;31.87;;;14.83;;
5682;SDS011;2864;49.220;8.654;2023-01-31T07:31:43;36.13;;;14.70;;
5682;SDS011;2864;49.220;8.654;2023-01-31T07:34:09;39.07;;;15.73;;
5682;SDS011;2864;49.220;8.654;2023-01-31T07:36:35;40.57;;;16.30;;
5682;SDS011;2864;49.220;8.654;2023-01-31T07:39:01;37.70;;;16.07;;
5682;SDS011;2864;49.220;8.654;2023-01-31T07:41:27;29.63;;;14.83;;
5682;SDS011;2864;49.220;8.654;2023-01-31T07:43:53;33.47;;;15.03;;
5682;SDS011;2864;49.220;8.654;2023-01-31T07:46:19;33.40;;;16.33;;
5682;SDS011;2864;49.220;8.654;2023-01-31T07:48:45;36.73;;;15.53;;
5682;SDS011;2864;49.220;8.654;2023-01-31T07:51:11;31.80;;;15.10;;
5682;SDS011;2864;49.220;8.654;2023-01-31T07:53:37;28.70;;;14.20;;
5682;SDS011;2864;49.220;8.654;2023-01-31T07:56:16;26.60;;;13.07;;
5682;SDS011;2864;49.220;8.654;2023-01-31T07:58:44;29.17;;;14.90;;
5682;SDS011;2864;49.220;8.654;2023-01-31T08:01:15;30.50;;;17.00;;
5682;SDS011;2864;49.220;8.654;2023-01-31T08:04:00;31.60;;;16.63;;
5682;SDS011;2864;49.220;8.654;2023-01-31T08:06:26;31.80;;;15.80;;
5682;SDS011;2864;49.220;8.654;2023-01-31T08:08:54;35.70;;;17.30;;
5682;SDS011;2864;49.220;8.654;2023-01-31T08:11:20;34.80;;;16.83;;
5682;SDS011;2864;49.220;8.654;2023-01-31T08:13:46;34.00;;;15.73;;
5682;SDS011;2864;49.220;8.654;2023-01-31T08:16:12;34.93;;;16.30;;
5682;SDS011;2864;49.220;8.654;2023-01-31T08:18:38;32.40;;;17.27;;
5682;SDS011;2864;49.220;8.654;2023-01-31T08:21:04;32.57;;;15.70;;
5682;SDS011;2864;49.220;8.654;2023-01-31T08:23:31;34.00;;;16.77;;
5682;SDS011;2864;49.220;8.654;2023-01-31T08:26:01;33.17;;;16.43;;
5682;SDS011;2864;49.220;8.654;2023-01-31T08:28:27;31.10;;;14.53;;
5682;SDS011;2864;49.220;8.654;2023-01-31T08:30:54;30.27;;;14.83;;
5682;SDS011;2864;49.220;8.654;2023-01-31T08:33:20;28.20;;;13.90;;
5682;SDS011;2864;49.220;8.654;2023-01-31T08:35:46;29.73;;;13.97;;
5682;SDS011;2864;49.220;8.654;2023-01-31T08:38:12;31.17;;;15.60;;
5682;SDS011;2864;49.220;8.654;2023-01-31T08:40:38;26.20;;;14.47;;
5682;SDS011;2864;49.220;8.654;2023-01-31T08:43:04;26.83;;;14.37;;
5682;SDS011;2864;49.220;8.654;2023-01-31T08:45:30;28.53;;;14.40;;
5682;SDS011;2864;49.220;8.654;2023-01-31T08:47:57;24.83;;;13.57;;
5682;SDS011;2864;49.220;8.654;2023-01-31T08:50:24;25.20;;;14.77;;
5682;SDS011;2864;49.220;8.654;2023-01-31T08:52:51;28.03;;;14.60;;
5682;SDS011;2864;49.220;8.654;2023-01-31T08:55:17;27.87;;;13.00;;
5682;SDS011;2864;49.220;8.654;2023-01-31T08:57:43;30.27;;;14.03;;
5682;SDS011;2864;49.220;8.654;2023-01-31T09:00:10;21.27;;;11.97;;
5682;SDS011;2864;49.220;8.654;2023-01-31T09:02:36;21.83;;;12.00;;
5682;SDS011;2864;49.220;8.654;2023-01-31T09:05:02;23.07;;;11.30;;
5682;SDS011;2864;49.220;8.654;2023-01-31T09:07:29;18.90;;;11.23;;
5682;SDS011;2864;49.220;8.654;2023-01-31T09:09:55;20.97;;;10.23;;
5682;SDS011;2864;49.220;8.654;2023-01-31T09:12:21;20.37;;;10.30;;
5682;SDS011;2864;49.220;8.654;2023-01-31T09:14:48;16.73;;;7.13;;
5682;SDS011;2864;49.220;8.654;2023-01-31T09:17:15;15.10;;;8.10;;
5682;SDS011;2864;49.220;8.654;2023-01-31T09:19:41;17.67;;;8.77;;
5682;SDS011;2864;49.220;8.654;2023-01-31T09:22:07;14.80;;;7.07;;
5682;SDS011;2864;49.220;8.654;2023-01-31T09:24:33;15.10;;;7.73;;
5682;SDS011;2864;49.220;8.654;2023-01-31T09:26:59;19.47;;;8.60;;
5682;SDS011;2864;49.220;8.654;2023-01-31T09:29:25;23.60;;;7.40;;
5682;SDS011;2864;49.220;8.654;2023-01-31T09:31:52;14.87;;;7.70;;
5682;SDS011;2864;49.220;8.654;2023-01-31T09:34:18;11.70;;;6.80;;
5682;SDS011;2864;49.220;8.654;2023-01-31T09:36:45;15.93;;;7.50;;
5682;SDS011;2864;49.220;8.654;2023-01-31T09:39:11;14.37;;;8.00;;
5682;SDS011;2864;49.220;8.654;2023-01-31T09:41:42;11.33;;;7.07;;
5682;SDS011;2864;49.220;8.654;2023-01-31T09:46:41;14.13;;;8.23;;
5682;SDS011;2864;49.220;8.654;2023-01-31T09:49:14;16.33;;;7.83;;
5682;SDS011;2864;49.220;8.654;2023-01-31T09:51:51;15.40;;;8.70;;
5682;SDS011;2864;49.220;8.654;2023-01-31T09:54:29;16.90;;;8.53;;
5682;SDS011;2864;49.220;8.654;2023-01-31T09:56:58;15.60;;;8.67;;
5682;SDS011;2864;49.220;8.654;2023-01-31T09:59:28;22.30;;;8.43;;
5682;SDS011;2864;49.220;8.654;2023-01-31T10:04:38;16.07;;;8.67;;
5682;SDS011;2864;49.220;8.654;2023-01-31T10:07:12;15.80;;;7.90;;
5682;SDS011;2864;49.220;8.654;2023-01-31T10:14:55;16.57;;;8.07;;
5682;SDS011;2864;49.220;8.654;2023-01-31T10:17:26;18.50;;;8.50;;
5682;SDS011;2864;49.220;8.654;2023-01-31T10:22:33;14.90;;;8.57;;
5682;SDS011;2864;49.220;8.654;2023-01-31T10:25:15;17.33;;;7.87;;
5682;SDS011;2864;49.220;8.654;2023-01-31T10:27:49;15.40;;;8.23;;
5682;SDS011;2864;49.220;8.654;2023-01-31T10:30:17;15.67;;;7.43;;
5682;SDS011;2864;49.220;8.654;2023-01-31T10:32:46;14.47;;;7.53;;
5682;SDS011;2864;49.220;8.654;2023-01-31T10:35:23;15.40;;;8.20;;
5682;SDS011;2864;49.220;8.654;2023-01-31T10:38:06;12.63;;;7.07;;
5682;SDS011;2864;49.220;8.654;2023-01-31T10:40:36;17.80;;;7.23;;
5682;SDS011;2864;49.220;8.654;2023-01-31T10:43:15;14.13;;;7.00;;
5682;SDS011;2864;49.220;8.654;2023-01-31T10:45:41;14.03;;;6.40;;
5682;SDS011;2864;49.220;8.654;2023-01-31T10:50:43;18.17;;;6.53;;
5682;SDS011;2864;49.220;8.654;2023-01-31T10:58:20;11.83;;;6.70;;
5682;SDS011;2864;49.220;8.654;2023-01-31T11:00:47;16.13;;;6.90;;
5682;SDS011;2864;49.220;8.654;2023-01-31T11:03:13;17.60;;;7.20;;
5682;SDS011;2864;49.220;8.654;2023-01-31T11:05:45;12.57;;;6.10;;
5682;SDS011;2864;49.220;8.654;2023-01-31T11:08:46;13.63;;;7.00;;
5682;SDS011;2864;49.220;8.654;2023-01-31T11:11:14;13.23;;;6.73;;
5682;SDS011;2864;49.220;8.654;2023-01-31T11:13:57;16.47;;;6.53;;
5682;SDS011;2864;49.220;8.654;2023-01-31T11:16:23;13.37;;;6.37;;
5682;SDS011;2864;49.220;8.654;2023-01-31T11:18:50;12.50;;;6.80;;
5682;SDS011;2864;49.220;8.654;2023-01-31T11:21:19;14.00;;;7.07;;
5682;SDS011;2864;49.220;8.654;2023-01-31T11:23:54;14.20;;;6.03;;
5682;SDS011;2864;49.220;8.654;2023-01-31T11:26:24;14.37;;;6.97;;
5682;SDS011;2864;49.220;8.654;2023-01-31T11:28:51;14.20;;;6.63;;
5682;SDS011;2864;49.220;8.654;2023-01-31T11:31:24;14.37;;;6.10;;
5682;SDS011;2864;49.220;8.654;2023-01-31T11:34:00;9.97;;;4.90;;
5682;SDS011;2864;49.220;8.654;2023-01-31T11:36:30;9.03;;;5.90;;
5682;SDS011;2864;49.220;8.654;2023-01-31T11:38:56;11.50;;;5.50;;
5682;SDS011;2864;49.220;8.654;2023-01-31T11:44:15;14.17;;;5.20;;
5682;SDS011;2864;49.220;8.654;2023-01-31T11:49:18;10.67;;;5.30;;
5682;SDS011;2864;49.220;8.654;2023-01-31T11:51:47;10.87;;;5.50;;
5682;SDS011;2864;49.220;8.654;2023-01-31T11:54:16;11.33;;;5.73;;
5682;SDS011;2864;49.220;8.654;2023-01-31T11:56:43;23.40;;;6.30;;
5682;SDS011;2864;49.220;8.654;2023-01-31T11:59:11;11.87;;;5.63;;
5682;SDS011;2864;49.220;8.654;2023-01-31T12:01:44;16.10;;;5.27;;
5682;SDS011;2864;49.220;8.654;2023-01-31T12:04:17;15.00;;;6.17;;
5682;SDS011;2864;49.220;8.654;2023-01-31T12:06:55;12.87;;;4.80;;
5682;SDS011;2864;49.220;8.654;2023-01-31T12:09:25;13.10;;;5.90;;
5682;SDS011;2864;49.220;8.654;2023-01-31T12:11:56;10.97;;;5.10;;
5682;SDS011;2864;49.220;8.654;2023-01-31T12:14:23;14.60;;;5.47;;
5682;SDS011;2864;49.220;8.654;2023-01-31T12:16:49;10.47;;;5.30;;
5682;SDS011;2864;49.220;8.654;2023-01-31T12:22:05;8.90;;;4.47;;
5682;SDS011;2864;49.220;8.654;2023-01-31T13:03:29;5.77;;;4.70;;
5682;SDS011;2864;49.220;8.654;2023-01-31T13:06:00;10.77;;;5.70;;
5682;SDS011;2864;49.220;8.654;2023-01-31T13:08:30;9.33;;;4.90;;
5682;SDS011;2864;49.220;8.654;2023-01-31T13:13:27;9.13;;;4.47;;
5682;SDS011;2864;49.220;8.654;2023-01-31T13:18:35;8.73;;;4.50;;
5682;SDS011;2864;49.220;8.654;2023-01-31T13:21:06;9.20;;;4.77;;
5682;SDS011;2864;49.220;8.654;2023-01-31T13:23:37;8.33;;;4.67;;
5682;SDS011;2864;49.220;8.654;2023-01-31T13:28:35;10.07;;;5.10;;
5682;SDS011;2864;49.220;8.654;2023-01-31T13:31:08;11.37;;;5.57;;
5682;SDS011;2864;49.220;8.654;2023-01-31T13:36:42;8.77;;;5.40;;
5682;SDS011;2864;49.220;8.654;2023-01-31T13:39:14;9.03;;;4.40;;
5682;SDS011;2864;49.220;8.654;2023-01-31T13:41:42;11.20;;;4.60;;
5682;SDS011;2864;49.220;8.654;2023-01-31T13:44:10;9.63;;;6.07;;
5682;SDS011;2864;49.220;8.654;2023-01-31T13:49:04;9.87;;;5.37;;
5682;SDS011;2864;49.220;8.654;2023-01-31T13:51:37;10.63;;;4.93;;
5682;SDS011;2864;49.220;8.654;2023-01-31T13:56:37;11.20;;;5.20;;
5682;SDS011;2864;49.220;8.654;2023-01-31T13:59:08;12.63;;;5.60;;
5682;SDS011;2864;49.220;8.654;2023-01-31T14:01:42;9.60;;;4.73;;
5682;SDS011;2864;49.220;8.654;2023-01-31T14:11:56;7.97;;;4.60;;
5682;SDS011;2864;49.220;8.654;2023-01-31T14:16:54;7.97;;;4.77;;
5682;SDS011;2864;49.220;8.654;2023-01-31T14:22:03;12.20;;;5.10;;
5682;SDS011;2864;49.220;8.654;2023-01-31T14:32:24;9.90;;;5.03;;
5682;SDS011;2864;49.220;8.654;2023-01-31T14:34:53;8.60;;;4.60;;
5682;SDS011;2864;49.220;8.654;2023-01-31T14:40:04;10.80;;;5.03;;
5682;SDS011;2864;49.220;8.654;2023-01-31T14:42:46;10.53;;;4.90;;
5682;SDS011;2864;49.220;8.654;2023-01-31T14:50:41;7.90;;;5.10;;
5682;SDS011;2864;49.220;8.654;2023-01-31T14:58:19;6.73;;;4.77;;
5682;SDS011;2864;49.220;8.654;2023-01-31T15:00:50;10.90;;;4.80;;
5682;SDS011;2864;49.220;8.654;2023-01-31T15:05:48;8.10;;;5.03;;
5682;SDS011;2864;49.220;8.654;2023-01-31T15:10:55;12.80;;;5.87;;
5682;SDS011;2864;49.220;8.654;2023-01-31T15:13:53;10.13;;;5.07;;
5682;SDS011;2864;49.220;8.654;2023-01-31T15:21:25;14.73;;;5.37;;
5682;SDS011;2864;49.220;8.654;2023-01-31T15:23:52;9.57;;;5.30;;
5682;SDS011;2864;49.220;8.654;2023-01-31T15:26:19;11.07;;;4.93;;
5682;SDS011;2864;49.220;8.654;2023-01-31T15:28:45;9.30;;;5.03;;
5682;SDS011;2864;49.220;8.654;2023-01-31T15:31:14;11.70;;;5.63;;
5682;SDS011;2864;49.220;8.654;2023-01-31T15:33:41;11.37;;;4.73;;
5682;SDS011;2864;49.220;8.654;2023-01-31T15:36:13;14.37;;;5.40;;
5682;SDS011;2864;49.220;8.654;2023-01-31T15:43:41;11.33;;;5.13;;
5682;SDS011;2864;49.220;8.654;2023-01-31T15:46:40;11.73;;;5.03;;
5682;SDS011;2864;49.220;8.654;2023-01-31T15:49:00;9.40;;;4.40;;
5682;SDS011;2864;49.220;8.654;2023-01-31T15:51:26;10.77;;;4.70;;
5682;SDS011;2864;49.220;8.654;2023-01-31T15:53:59;8.67;;;5.07;;
5682;SDS011;2864;49.220;8.654;2023-01-31T15:56:26;9.77;;;4.93;;
5682;SDS011;2864;49.220;8.654;2023-01-31T15:59:12;8.77;;;4.90;;
5682;SDS011;2864;49.220;8.654;2023-01-31T16:01:48;5.90;;;4.30;;
5682;SDS011;2864;49.220;8.654;2023-01-31T16:04:22;8.97;;;4.97;;
5682;SDS011;2864;49.220;8.654;2023-01-31T16:06:48;11.00;;;5.30;;
5682;SDS011;2864;49.220;8.654;2023-01-31T16:09:30;10.73;;;5.77;;
5682;SDS011;2864;49.220;8.654;2023-01-31T16:11:57;8.47;;;5.47;;
5682;SDS011;2864;49.220;8.654;2023-01-31T16:14:25;11.40;;;5.33;;
5682;SDS011;2864;49.220;8.654;2023-01-31T16:16:53;9.10;;;4.73;;
5682;SDS011;2864;49.220;8.654;2023-01-31T16:19:24;10.17;;;5.13;;
5682;SDS011;2864;49.220;8.654;2023-01-31T16:21:51;9.83;;;5.17;;
5682;SDS011;2864;49.220;8.654;2023-01-31T16:24:19;7.97;;;4.73;;
5682;SDS011;2864;49.220;8.654;2023-01-31T16:26:59;10.23;;;5.03;;
5682;SDS011;2864;49.220;8.654;2023-01-31T16:29:32;8.93;;;5.20;;
5682;SDS011;2864;49.220;8.654;2023-01-31T16:32:02;9.57;;;5.23;;
5682;SDS011;2864;49.220;8.654;2023-01-31T16:34:30;7.93;;;5.13;;
5682;SDS011;2864;49.220;8.654;2023-01-31T16:45:01;10.33;;;6.07;;
5682;SDS011;2864;49.220;8.654;2023-01-31T16:47:31;15.50;;;7.63;;
5682;SDS011;2864;49.220;8.654;2023-01-31T16:52:45;8.37;;;5.50;;
5682;SDS011;2864;49.220;8.654;2023-01-31T16:55:12;9.27;;;5.63;;
5682;SDS011;2864;49.220;8.654;2023-01-31T16:57:42;7.10;;;4.53;;
5682;SDS011;2864;49.220;8.654;2023-01-31T17:02:53;9.13;;;5.03;;
5682;SDS011;2864;49.220;8.654;2023-01-31T17:05:24;12.23;;;4.77;;
5682;SDS011;2864;49.220;8.654;2023-01-31T17:08:00;11.83;;;5.47;;
5682;SDS011;2864;49.220;8.654;2023-01-31T17:10:31;9.27;;;5.63;;
5682;SDS011;2864;49.220;8.654;2023-01-31T17:13:19;10.63;;;5.20;;
5682;SDS011;2864;49.220;8.654;2023-01-31T17:15:44;10.50;;;5.57;;
5682;SDS011;2864;49.220;8.654;2023-01-31T17:18:10;11.50;;;5.37;;
5682;SDS011;2864;49.220;8.654;2023-01-31T17:20:38;13.20;;;6.20;;
5682;SDS011;2864;49.220;8.654;2023-01-31T17:23:04;10.37;;;5.50;;
5682;SDS011;2864;49.220;8.654;2023-01-31T17:25:31;9.97;;;5.73;;
5682;SDS011;2864;49.220;8.654;2023-01-31T17:27:58;8.97;;;5.83;;
5682;SDS011;2864;49.220;8.654;2023-01-31T17:30:24;13.93;;;5.87;;
5682;SDS011;2864;49.220;8.654;2023-01-31T17:32:52;15.53;;;6.53;;
5682;SDS011;2864;49.220;8.654;2023-01-31T17:35:22;9.63;;;5.43;;
5682;SDS011;2864;49.220;8.654;2023-01-31T17:37:50;12.00;;;5.63;;
5682;SDS011;2864;49.220;8.654;2023-01-31T17:40:16;10.20;;;5.80;;
5682;SDS011;2864;49.220;8.654;2023-01-31T17:42:42;10.17;;;5.33;;
5682;SDS011;2864;49.220;8.654;2023-01-31T17:45:13;11.73;;;5.80;;
5682;SDS011;2864;49.220;8.654;2023-01-31T17:47:42;13.77;;;5.80;;
5682;SDS011;2864;49.220;8.654;2023-01-31T17:50:13;9.67;;;5.60;;
5682;SDS011;2864;49.220;8.654;2023-01-31T17:52:39;7.97;;;5.27;;
5682;SDS011;2864;49.220;8.654;2023-01-31T17:55:05;8.10;;;4.73;;
5682;SDS011;2864;49.220;8.654;2023-01-31T17:57:31;8.37;;;5.70;;
5682;SDS011;2864;49.220;8.654;2023-01-31T17:59:58;8.40;;;5.17;;
5682;SDS011;2864;49.220;8.654;2023-01-31T18:02:24;9.77;;;5.50;;
5682;SDS011;2864;49.220;8.654;2023-01-31T18:04:50;9.20;;;5.57;;
5682;SDS011;2864;49.220;8.654;2023-01-31T18:07:16;12.00;;;5.50;;
5682;SDS011;2864;49.220;8.654;2023-01-31T18:09:42;8.77;;;5.20;;
5682;SDS011;2864;49.220;8.654;2023-01-31T18:12:11;8.70;;;5.23;;
5682;SDS011;2864;49.220;8.654;2023-01-31T18:14:37;7.03;;;4.47;;
5682;SDS011;2864;49.220;8.654;2023-01-31T18:17:03;9.70;;;4.90;;
5682;SDS011;2864;49.220;8.654;2023-01-31T18:19:29;8.20;;;5.37;;
5682;SDS011;2864;49.220;8.654;2023-01-31T18:21:55;7.70;;;4.67;;